Cresthill, Illinois
Current Conditions -  °F | °C
As of 2:15 AM on Monday 22 Dec 2014 (Local Time) from KLOT Reporting Station
Haze Haze  
Wind Chill: 22°   Ceiling: Unl
Heat Index: 30°   Visibility: 5mi
Dew Point: 28°   Wind: 10mph
Humidity: 92%   Direction: 150°SSE
Pressure: 29.98"   Gusts: NA
Location:  41.6°N, 88.12°W
Report Text: KLOT 220815Z AUTO 15009KT 5SM BR SCT048 M01/M02 A2998 RMK AO2 T10091021
Loading
Personal Weather Stations






























Interactive Weather Map New forecast layout! Learn more

10-Day Weather Forecast

Advertisements
Track Severe Weather on mobile